createdAt,value
2019-05-28T00:00:45.566Z,29.40
2019-05-28T00:04:46.575Z,34.03
2019-05-28T00:08:47.615Z,33.73
2019-05-28T00:12:48.600Z,28.03
2019-05-28T00:16:49.469Z,30.00
2019-05-28T00:20:50.351Z,26.93
2019-05-28T00:24:51.244Z,26.60
2019-05-28T00:28:52.104Z,25.33
2019-05-28T00:32:52.976Z,25.03
2019-05-28T00:36:53.959Z,25.33
2019-05-28T00:40:54.838Z,24.90
2019-05-28T00:44:56.050Z,24.23
2019-05-28T00:48:57.054Z,27.93
2019-05-28T00:52:57.925Z,28.73
2019-05-28T00:56:59.140Z,28.90
2019-05-28T01:01:00.106Z,33.90
2019-05-28T01:05:00.999Z,33.87
2019-05-28T01:09:04.446Z,35.37
2019-05-28T01:13:05.521Z,35.03
2019-05-28T01:17:06.596Z,33.23
2019-05-28T01:21:07.475Z,32.17
2019-05-28T01:25:08.650Z,26.93
2019-05-28T01:29:09.593Z,30.63
2019-05-28T01:33:10.480Z,25.63
2019-05-28T01:37:11.469Z,25.90
2019-05-28T01:41:12.350Z,25.23
2019-05-28T01:45:13.941Z,27.70
2019-05-28T01:49:14.905Z,25.93
2019-05-28T01:53:15.778Z,27.57
2019-05-28T01:57:16.646Z,26.10
2019-05-28T02:01:17.502Z,26.27
2019-05-28T02:05:18.591Z,29.37
2019-05-28T02:09:19.550Z,27.33
2019-05-28T02:13:20.408Z,28.80
2019-05-28T02:17:21.288Z,30.63
2019-05-28T02:21:22.261Z,28.07
2019-05-28T02:25:23.306Z,30.77
2019-05-28T02:29:24.179Z,30.47
2019-05-28T02:33:25.065Z,32.07
2019-05-28T02:37:26.044Z,29.80
2019-05-28T02:41:26.995Z,28.47
2019-05-28T02:45:28.088Z,30.47
2019-05-28T02:49:28.977Z,29.00
2019-05-28T02:53:30.661Z,25.97
2019-05-28T02:57:33.306Z,26.57
2019-05-28T03:01:44.065Z,29.03
2019-05-28T03:05:41.588Z,27.00
2019-05-28T03:09:44.645Z,31.37
2019-05-28T03:13:45.545Z,30.70
2019-05-28T03:17:46.700Z,32.03
2019-05-28T03:21:49.164Z,31.87
2019-05-28T03:25:50.040Z,30.10
2019-05-28T03:29:50.905Z,24.67
2019-05-28T03:33:51.894Z,28.87
2019-05-28T03:37:53.056Z,31.93
2019-05-28T03:41:53.899Z,28.33
2019-05-28T03:45:54.809Z,32.57
2019-05-28T03:49:55.657Z,32.03
2019-05-28T03:53:56.505Z,29.83
2019-05-28T03:57:57.523Z,30.80
2019-05-28T04:01:58.402Z,29.77
2019-05-28T04:05:59.391Z,28.10
2019-05-28T04:10:00.266Z,30.50
2019-05-28T04:14:01.227Z,28.00
2019-05-28T04:18:02.520Z,25.40
2019-05-28T04:22:03.389Z,26.37
2019-05-28T04:26:04.259Z,26.30
2019-05-28T04:30:06.036Z,28.07
2019-05-28T04:34:06.865Z,37.77
2019-05-28T04:38:07.864Z,27.47
2019-05-28T04:42:08.749Z,27.87
2019-05-28T04:46:09.676Z,29.23
2019-05-28T04:50:11.329Z,26.00
2019-05-28T04:54:12.179Z,42.20
2019-05-28T04:58:13.147Z,28.80
2019-05-28T05:02:14.154Z,26.97
2019-05-28T05:06:15.051Z,25.10
2019-05-28T05:10:19.034Z,28.10
2019-05-28T05:14:18.694Z,25.90
2019-05-28T05:18:19.556Z,27.27
2019-05-28T05:22:20.430Z,28.03
2019-05-28T05:26:21.323Z,28.63
2019-05-28T05:30:22.229Z,29.70
2019-05-28T05:34:23.101Z,30.47
2019-05-28T05:38:24.085Z,28.03
2019-05-28T05:42:25.055Z,27.40
2019-05-28T05:46:26.154Z,29.07
2019-05-28T05:50:27.121Z,27.13
2019-05-28T05:54:28.002Z,27.60
2019-05-28T05:58:28.864Z,28.73
2019-05-28T06:02:29.712Z,29.77
2019-05-28T06:06:30.603Z,34.10
2019-05-28T06:10:31.504Z,32.00
2019-05-28T06:14:32.381Z,30.73
2019-05-28T06:18:33.242Z,32.87
2019-05-28T06:22:34.692Z,34.33
2019-05-28T06:26:36.017Z,35.33
2019-05-28T06:30:36.885Z,37.80
2019-05-28T06:34:37.764Z,42.63
2019-05-28T06:38:38.634Z,42.60
2019-05-28T06:42:40.289Z,46.60
2019-05-28T06:46:41.288Z,36.87
2019-05-28T06:50:42.148Z,34.53
2019-05-28T06:54:43.031Z,36.50
2019-05-28T06:58:43.892Z,37.33
2019-05-28T07:02:44.776Z,45.60
2019-05-28T07:06:45.689Z,49.80
2019-05-28T07:10:57.249Z,56.27
2019-05-28T07:14:49.543Z,57.13
2019-05-28T07:18:50.561Z,73.80
2019-05-28T07:22:51.685Z,47.37
2019-05-28T07:26:52.689Z,31.87
2019-05-28T07:30:53.591Z,32.90
2019-05-28T07:34:54.456Z,35.00
2019-05-28T07:38:55.447Z,37.07
2019-05-28T07:42:56.321Z,43.17
2019-05-28T07:46:57.207Z,34.03
2019-05-28T07:50:58.113Z,35.23
2019-05-28T07:54:59.077Z,31.70
2019-05-28T07:58:59.962Z,32.47
2019-05-28T08:03:00.948Z,26.87
2019-05-28T08:07:01.938Z,23.33
2019-05-28T08:11:03.051Z,25.83
2019-05-28T08:15:04.908Z,23.53
2019-05-28T08:19:08.788Z,23.47
2019-05-28T08:23:08.914Z,21.07
2019-05-28T08:27:10.288Z,19.97
2019-05-28T08:31:16.410Z,23.67
2019-05-28T08:35:14.577Z,25.57
2019-05-28T08:39:15.634Z,21.77
2019-05-28T08:43:16.653Z,18.93
2019-05-28T08:47:17.763Z,15.83
2019-05-28T08:51:18.666Z,14.00
2019-05-28T08:55:19.763Z,13.37
2019-05-28T08:59:20.737Z,11.23
2019-05-28T09:03:21.618Z,11.23
2019-05-28T09:07:22.595Z,9.40
2019-05-28T09:11:23.657Z,10.00
2019-05-28T09:15:24.554Z,12.27
2019-05-28T09:19:25.768Z,8.93
2019-05-28T09:23:26.637Z,7.60
2019-05-28T09:27:27.489Z,6.10
2019-05-28T09:31:28.487Z,9.53
2019-05-28T09:35:44.201Z,6.37
2019-05-28T09:39:32.343Z,7.67
2019-05-28T09:43:33.181Z,9.20
2019-05-28T09:47:34.301Z,8.23
2019-05-28T09:51:35.150Z,9.70
2019-05-28T09:55:36.026Z,6.33
2019-05-28T09:59:41.684Z,6.30
2019-05-28T10:03:39.791Z,5.97
2019-05-28T10:07:40.793Z,5.83
2019-05-28T10:11:41.709Z,5.83
2019-05-28T10:15:42.767Z,6.87
2019-05-28T10:19:43.661Z,4.07
2019-05-28T10:23:44.516Z,6.40
2019-05-28T10:28:00.424Z,4.57
2019-05-28T10:31:49.099Z,3.53
2019-05-28T10:35:49.986Z,3.63
2019-05-28T10:39:50.959Z,3.53
2019-05-28T10:43:51.823Z,4.73
2019-05-28T10:47:53.976Z,5.47
2019-05-28T10:51:55.067Z,4.13
2019-05-28T10:55:56.037Z,5.83
2019-05-28T10:59:56.990Z,4.97
2019-05-28T11:03:57.886Z,3.33
2019-05-28T11:07:58.770Z,5.07
2019-05-28T11:11:59.649Z,5.27
2019-05-28T11:16:00.500Z,6.67
2019-05-28T11:20:03.885Z,7.10
2019-05-28T11:24:04.881Z,6.20
2019-05-28T11:28:05.776Z,6.77
2019-05-28T11:32:07.006Z,7.97
2019-05-28T11:36:07.997Z,8.80
2019-05-28T11:40:11.157Z,7.63
2019-05-28T11:44:12.848Z,6.33
2019-05-28T11:48:13.859Z,5.00
2019-05-28T11:52:14.745Z,5.13
2019-05-28T11:56:15.738Z,3.60
2019-05-28T12:00:17.831Z,2.50
2019-05-28T12:04:18.911Z,2.83
2019-05-28T12:08:19.788Z,2.47
2019-05-28T12:12:20.743Z,1.60
2019-05-28T12:16:21.810Z,2.50
2019-05-28T12:20:23.169Z,2.23
2019-05-28T12:24:28.117Z,2.07
2019-05-28T12:28:37.429Z,4.47
2019-05-28T12:32:29.698Z,5.03
2019-05-28T12:36:30.569Z,3.07
2019-05-28T12:40:46.295Z,2.63
2019-05-28T12:44:42.263Z,4.43
2019-05-28T12:48:37.266Z,2.60
2019-05-28T12:52:38.343Z,2.97
2019-05-28T12:56:39.216Z,3.00
2019-05-28T13:00:40.304Z,4.53
2019-05-28T13:04:41.171Z,5.73
2019-05-28T13:08:42.029Z,2.73
2019-05-28T13:12:43.015Z,2.50
2019-05-28T13:16:43.915Z,3.63
2019-05-28T13:20:48.115Z,4.20
2019-05-28T13:24:47.605Z,4.43
2019-05-28T13:28:48.682Z,3.63
2019-05-28T13:32:49.745Z,7.83
2019-05-28T13:36:50.811Z,8.30
2019-05-28T13:40:51.696Z,6.10
2019-05-28T13:44:52.597Z,5.53
2019-05-28T13:48:53.601Z,4.70
2019-05-28T13:52:54.703Z,4.70
2019-05-28T13:56:55.678Z,5.53
2019-05-28T14:00:56.683Z,6.30
2019-05-28T14:04:57.500Z,7.40
2019-05-28T14:08:58.366Z,5.33
2019-05-28T14:12:59.378Z,5.73
2019-05-28T14:17:00.451Z,7.93
2019-05-28T14:21:01.350Z,5.40
2019-05-28T14:25:03.671Z,6.33
2019-05-28T14:29:04.764Z,8.50
2019-05-28T14:33:05.645Z,14.10
2019-05-28T14:37:06.554Z,6.47
2019-05-28T14:41:07.573Z,5.00
2019-05-28T14:45:09.558Z,6.20
2019-05-28T14:49:10.866Z,2.77
2019-05-28T14:53:11.860Z,4.63
2019-05-28T14:57:12.737Z,1.97
2019-05-28T15:01:13.623Z,4.50
2019-05-28T15:05:14.790Z,3.37
2019-05-28T15:09:20.766Z,2.57
2019-05-28T15:13:18.578Z,6.33
2019-05-28T15:17:19.662Z,3.13
2019-05-28T15:21:20.719Z,2.53
2019-05-28T15:25:21.874Z,2.70
2019-05-28T15:29:22.888Z,3.10
2019-05-28T15:33:23.795Z,3.67
2019-05-28T15:37:24.763Z,2.43
2019-05-28T15:41:25.761Z,2.50
2019-05-28T15:45:26.758Z,4.77
2019-05-28T15:49:27.753Z,3.33
2019-05-28T15:53:28.638Z,3.03
2019-05-28T15:57:29.505Z,4.17
2019-05-28T16:01:30.377Z,4.93
2019-05-28T16:05:31.368Z,5.30
2019-05-28T16:09:32.367Z,3.37
2019-05-28T16:13:33.290Z,4.47
2019-05-28T16:17:34.203Z,6.20
2019-05-28T16:21:35.089Z,5.67
2019-05-28T16:25:35.954Z,4.77
2019-05-28T16:29:36.855Z,3.03
2019-05-28T16:33:37.749Z,5.47
2019-05-28T16:37:38.725Z,5.00
2019-05-28T16:41:39.595Z,4.70
2019-05-28T16:45:40.458Z,4.07
2019-05-28T16:49:41.387Z,3.63
2019-05-28T16:53:42.248Z,8.37
2019-05-28T16:57:43.166Z,3.43
2019-05-28T17:01:44.135Z,4.80
2019-05-28T17:05:45.065Z,3.87
2019-05-28T17:09:45.939Z,4.20
2019-05-28T17:13:48.736Z,2.30
2019-05-28T17:17:49.743Z,4.57
2019-05-28T17:21:50.938Z,2.10
2019-05-28T17:25:51.994Z,5.80
2019-05-28T17:29:52.970Z,5.50
2019-05-28T17:33:53.947Z,4.20
2019-05-28T17:37:55.027Z,5.00
2019-05-28T17:41:56.571Z,4.73
2019-05-28T17:45:57.679Z,5.13
2019-05-28T17:49:58.582Z,4.07
2019-05-28T17:53:59.562Z,4.17
2019-05-28T17:58:00.428Z,4.23
2019-05-28T18:02:01.761Z,5.30
2019-05-28T18:06:03.018Z,5.10
2019-05-28T18:10:09.240Z,5.33
2019-05-28T18:14:10.363Z,4.63
2019-05-28T18:18:11.270Z,4.23
2019-05-28T18:22:12.248Z,5.03
2019-05-28T18:26:13.125Z,4.03
2019-05-28T18:30:14.240Z,7.13
2019-05-28T18:34:15.410Z,3.30
2019-05-28T18:38:16.300Z,6.57
2019-05-28T18:42:17.380Z,5.10
2019-05-28T18:46:18.294Z,3.77
2019-05-28T18:50:19.408Z,4.70
2019-05-28T18:54:20.474Z,3.50
2019-05-28T18:58:21.614Z,6.27
2019-05-28T19:02:22.670Z,3.77
2019-05-28T19:06:23.583Z,3.30
2019-05-28T19:10:24.606Z,3.37
2019-05-28T19:14:25.674Z,3.57
2019-05-28T19:18:26.524Z,3.47
2019-05-28T19:22:27.402Z,3.23
2019-05-28T19:26:28.368Z,4.23
2019-05-28T19:30:31.391Z,2.87
2019-05-28T19:34:32.465Z,2.50
2019-05-28T19:38:44.902Z,3.10
2019-05-28T19:42:36.646Z,6.00
2019-05-28T19:46:37.637Z,2.80
2019-05-28T19:50:38.526Z,5.07
2019-05-28T19:54:39.533Z,5.23
2019-05-28T19:58:40.438Z,3.97
2019-05-28T20:02:41.404Z,3.77
2019-05-28T20:06:42.509Z,4.17
2019-05-28T20:10:43.610Z,4.00
2019-05-28T20:14:44.561Z,6.40
2019-05-28T20:18:45.501Z,5.33
2019-05-28T20:22:47.733Z,5.23
2019-05-28T20:26:49.966Z,7.27
2019-05-28T20:30:51.190Z,7.23
2019-05-28T20:34:52.366Z,7.13
2019-05-28T20:38:53.382Z,8.10
2019-05-28T20:42:54.495Z,10.10
2019-05-28T20:46:55.394Z,6.97
2019-05-28T20:51:07.344Z,7.67
2019-05-28T20:55:00.367Z,9.27
2019-05-28T20:59:01.529Z,7.53
2019-05-28T21:03:03.040Z,9.27
2019-05-28T21:07:04.037Z,8.27
2019-05-28T21:11:05.073Z,10.77
2019-05-28T21:15:07.253Z,9.17
2019-05-28T21:19:08.125Z,9.87
2019-05-28T21:23:09.110Z,10.43
2019-05-28T21:27:09.956Z,13.70
2019-05-28T21:31:10.975Z,9.57
2019-05-28T21:35:12.456Z,9.63
2019-05-28T21:39:13.331Z,11.83
2019-05-28T21:43:14.317Z,9.47
2019-05-28T21:47:15.317Z,8.90
2019-05-28T21:51:16.234Z,9.23
2019-05-28T21:55:17.246Z,9.53
2019-05-28T21:59:18.215Z,10.00
2019-05-28T22:03:19.472Z,9.90
2019-05-28T22:07:20.456Z,11.53
2019-05-28T22:11:21.359Z,10.53
2019-05-28T22:15:22.457Z,11.93
2019-05-28T22:19:23.420Z,11.07
2019-05-28T22:23:24.293Z,10.60
2019-05-28T22:27:25.291Z,11.43
2019-05-28T22:31:26.153Z,12.57
2019-05-28T22:35:27.138Z,13.50
2019-05-28T22:39:29.671Z,12.73
2019-05-28T22:43:32.006Z,12.10
2019-05-28T22:47:33.171Z,10.87
2019-05-28T22:51:34.098Z,10.57
2019-05-28T22:55:34.973Z,11.57
2019-05-28T22:59:36.451Z,9.37
2019-05-28T23:03:37.593Z,10.83
2019-05-28T23:07:38.451Z,10.53
2019-05-28T23:11:39.311Z,9.27
2019-05-28T23:15:40.407Z,10.40
2019-05-28T23:19:41.290Z,8.93
2019-05-28T23:23:42.356Z,9.17
2019-05-28T23:27:43.230Z,9.97
2019-05-28T23:31:44.129Z,9.67
2019-05-28T23:35:44.976Z,9.33
2019-05-28T23:39:46.050Z,11.13
2019-05-28T23:43:59.355Z,11.07
2019-05-28T23:47:49.710Z,11.27
2019-05-28T23:51:50.690Z,10.43
2019-05-28T23:55:51.580Z,10.53
2019-05-28T23:59:52.490Z,10.27
